< < Back
Terminal Aerodrome Forecast


Current Version              Previous Versions:   1  2  3  4  5  6  7  8  9  

Terminal Aerodrome Forecast

440
FTUS42 KTAE 020203 AAA
TAFDHN
TAF AMD
KDHN 020203Z 0202/0224 21010G20KT P6SM TSRA SCT050CB
     FM020400 26006KT P6SM SCT250
     FM021700 27010KT P6SM VCTS SCT040CB=



Latest METAR

785
SAUS70 KWBC 021400 RRL
MTRDHN
METAR KDHN 021353Z 26008KT 10SM CLR 27/22 A3013 RMK AO2 SLP197
T02670217


USA.gov is the U.S. government's official web portal to all federal, state and local government web resources and services.